Time;durP1;ratioP1;P1;durP2;ratioP2;P2;SDS_P1;SDS_P2;PMS_P1;PMS_P2;Temp;Humidity;BMP_temperature;BMP_pressure;BME280_temperature;BME280_humidity;BME280_pressure;Samples;Min_cycle;Max_cycle;Signal;HPM_P1;HPM_P2
2022/04/03 00:01:53;;;;;;;2.47;1.52;;;3.50;58.00;;;;;;4993098;28;20054;-63
2022/04/03 00:04:19;;;;;;;4.05;1.73;;;3.50;58.10;;;;;;5014641;28;20036;-63
2022/04/03 00:06:44;;;;;;;4.53;2.10;;;3.50;58.40;;;;;;5021304;28;20034;-63
2022/04/03 00:09:10;;;;;;;3.10;2.05;;;3.40;58.40;;;;;;5008384;28;20111;-56
2022/04/03 00:11:36;;;;;;;2.20;1.50;;;3.40;58.20;;;;;;5012918;28;20065;-58
2022/04/03 00:14:01;;;;;;;2.35;1.60;;;3.40;58.20;;;;;;5011453;28;20061;-62
2022/04/03 00:16:27;;;;;;;4.38;1.92;;;3.40;58.10;;;;;;5010805;28;20060;-56
2022/04/03 00:18:53;;;;;;;2.40;1.60;;;3.30;58.00;;;;;;5009725;28;20653;-55
2022/04/03 00:21:19;;;;;;;2.55;1.73;;;3.30;58.00;;;;;;5011612;28;20030;-54
2022/04/03 00:23:47;;;;;;;2.85;1.50;;;3.20;58.10;;;;;;5012201;28;20567;-53
2022/04/03 00:26:13;;;;;;;3.50;1.80;;;3.20;58.20;;;;;;5010632;28;20429;-56
2022/04/03 00:28:39;;;;;;;2.35;1.67;;;3.20;58.60;;;;;;5012015;28;20084;-53
2022/04/03 00:31:05;;;;;;;2.65;1.70;;;3.20;58.90;;;;;;5043606;28;20037;-57
2022/04/03 00:33:30;;;;;;;3.42;1.73;;;3.20;59.00;;;;;;5012085;28;20152;-58
2022/04/03 00:35:56;;;;;;;5.30;1.80;;;3.20;59.20;;;;;;5011842;28;20061;-55
2022/04/03 00:38:22;;;;;;;4.57;1.70;;;3.10;59.30;;;;;;5011708;28;20084;-63
2022/04/03 00:40:48;;;;;;;3.63;1.80;;;3.10;59.40;;;;;;5012078;28;20081;-63
2022/04/03 00:43:15;;;;;;;2.80;1.70;;;3.10;59.60;;;;;;5024538;28;20030;-63
2022/04/03 00:45:48;;;;;;;4.45;1.67;;;3.10;59.70;;;;;;5011519;28;20083;-63
2022/04/03 00:48:14;;;;;;;3.22;1.60;;;3.10;59.80;;;;;;5011788;28;20084;-63
2022/04/03 00:50:40;;;;;;;2.20;1.40;;;3.10;59.70;;;;;;5011464;28;20038;-63
2022/04/03 00:53:07;;;;;;;3.63;1.52;;;3.00;59.40;;;;;;5011340;28;20033;-53
2022/04/03 00:55:33;;;;;;;6.40;2.95;;;3.00;59.20;;;;;;5011605;28;20100;-59
2022/04/03 00:57:59;;;;;;;3.28;1.52;;;3.00;59.10;;;;;;5009948;28;20189;-63
2022/04/03 01:00:25;;;;;;;4.10;1.70;;;2.90;59.10;;;;;;5011466;28;20025;-63
2022/04/03 01:02:51;;;;;;;3.85;1.70;;;2.90;59.20;;;;;;5011464;28;20130;-63
2022/04/03 01:05:16;;;;;;;3.08;1.55;;;2.80;59.20;;;;;;5011441;28;20596;-63
2022/04/03 01:07:46;;;;;;;3.33;1.70;;;2.80;59.30;;;;;;5011380;28;20481;-63
2022/04/03 01:10:11;;;;;;;3.70;1.60;;;2.80;59.40;;;;;;5021447;28;20132;-63
2022/04/03 01:12:46;;;;;;;2.53;1.50;;;2.80;59.50;;;;;;5012220;28;20112;-63
2022/04/03 01:15:15;;;;;;;4.10;1.55;;;2.70;59.50;;;;;;5011061;28;20080;-63
2022/04/03 01:17:41;;;;;;;2.15;1.50;;;2.70;59.70;;;;;;5011688;28;20022;-63
2022/04/03 01:20:08;;;;;;;2.33;1.38;;;2.60;59.70;;;;;;5011366;28;20034;-63
2022/04/03 01:22:34;;;;;;;5.15;1.50;;;2.60;59.80;;;;;;5011004;28;20148;-63
2022/04/03 01:25:00;;;;;;;2.97;1.50;;;2.60;59.80;;;;;;4999760;28;20114;-63
2022/04/03 01:27:25;;;;;;;3.10;1.95;;;2.60;59.90;;;;;;5005011;28;20022;-53
2022/04/03 01:29:52;;;;;;;3.22;1.48;;;2.50;59.90;;;;;;5011224;28;20057;-56
2022/04/03 01:32:19;;;;;;;3.75;1.48;;;2.50;59.90;;;;;;5010961;28;20030;-54
2022/04/03 01:34:45;;;;;;;4.45;1.48;;;2.50;60.70;;;;;;5010742;28;20030;-58
2022/04/03 01:37:11;;;;;;;2.25;1.23;;;2.40;60.10;;;;;;5011367;28;20030;-53
2022/04/03 01:39:37;;;;;;;6.72;1.65;;;2.40;60.20;;;;;;5010857;28;20345;-56
2022/04/03 01:42:03;;;;;;;2.67;1.50;;;2.40;60.30;;;;;;5010616;28;20030;-55
2022/04/03 01:44:29;;;;;;;3.00;1.40;;;2.40;60.40;;;;;;5009711;28;20026;-56
2022/04/03 01:46:55;;;;;;;3.15;1.52;;;2.30;60.50;;;;;;5010819;28;20037;-57
2022/04/03 01:49:20;;;;;;;1.92;1.40;;;2.30;60.60;;;;;;5010702;28;20125;-55
2022/04/03 01:51:46;;;;;;;3.40;1.60;;;2.30;60.70;;;;;;5010916;28;20034;-56
2022/04/03 01:54:12;;;;;;;2.33;1.27;;;2.30;60.80;;;;;;5009645;28;20513;-57
2022/04/03 01:56:39;;;;;;;2.33;1.40;;;2.20;60.80;;;;;;5007739;28;20041;-63
2022/04/03 01:59:05;;;;;;;5.47;1.65;;;2.20;60.90;;;;;;5010356;28;20033;-63
2022/04/03 02:01:33;;;;;;;2.95;1.60;;;2.20;60.90;;;;;;5010557;28;20085;-62
2022/04/03 02:04:00;;;;;;;4.63;1.50;;;2.10;61.00;;;;;;5010516;28;20072;-63
2022/04/03 02:06:25;;;;;;;4.15;1.50;;;2.10;61.00;;;;;;5008071;28;20572;-63
2022/04/03 02:08:51;;;;;;;3.10;1.40;;;2.10;61.00;;;;;;5008766;28;20113;-62
2022/04/03 02:11:17;;;;;;;2.85;1.67;;;2.10;61.00;;;;;;5009275;28;20060;-63
2022/04/03 02:13:42;;;;;;;2.63;1.42;;;2.00;61.10;;;;;;5009862;28;20033;-63
2022/04/03 02:16:09;;;;;;;3.60;1.40;;;2.00;61.20;;;;;;5020738;28;20026;-62
2022/04/03 02:18:36;;;;;;;2.38;1.58;;;2.00;61.30;;;;;;5009398;28;20389;-63
2022/04/03 02:21:02;;;;;;;3.22;1.45;;;2.00;61.40;;;;;;5010471;28;20088;-56
2022/04/03 02:23:27;;;;;;;2.20;1.40;;;1.90;61.50;;;;;;5009406;28;20065;-57
2022/04/03 02:25:53;;;;;;;2.78;1.42;;;1.90;61.70;;;;;;5009595;28;20030;-56
2022/04/03 02:28:20;;;;;;;4.38;1.80;;;1.90;61.80;;;;;;5009927;28;20030;-56
2022/04/03 02:30:45;;;;;;;2.70;1.27;;;1.80;61.90;;;;;;5010531;28;20095;-57
2022/04/03 02:33:11;;;;;;;2.22;1.30;;;1.80;62.10;;;;;;5009582;28;20416;-57
2022/04/03 02:35:37;;;;;;;2.90;1.30;;;1.80;62.30;;;;;;5009533;28;20045;-57
2022/04/03 02:38:02;;;;;;;2.67;1.40;;;1.80;62.40;;;;;;5010025;28;20485;-57
2022/04/03 02:40:28;;;;;;;4.18;1.67;;;1.80;62.50;;;;;;5009659;28;20041;-57
2022/04/03 02:42:54;;;;;;;2.42;1.25;;;1.80;62.70;;;;;;5009435;28;20034;-56
2022/04/03 02:45:20;;;;;;;5.40;2.83;;;1.80;62.80;;;;;;5008158;28;20041;-58
2022/04/03 02:47:54;;;;;;;3.75;1.73;;;1.80;63.00;;;;;;5007998;28;20030;-58
2022/04/03 02:50:22;;;;;;;2.50;1.60;;;1.70;63.00;;;;;;5009138;28;20171;-58
2022/04/03 02:52:49;;;;;;;2.63;1.40;;;1.70;63.10;;;;;;5009815;28;20385;-58
2022/04/03 02:55:16;;;;;;;3.85;1.60;;;1.70;63.20;;;;;;5009020;28;20026;-57
2022/04/03 02:57:42;;;;;;;3.22;1.75;;;1.70;63.40;;;;;;5009508;28;20065;-57
2022/04/03 03:00:08;;;;;;;5.30;1.70;;;1.70;63.70;;;;;;5009117;28;20111;-58
2022/04/03 03:02:34;;;;;;;3.03;1.58;;;1.70;63.80;;;;;;5009074;28;20489;-57
2022/04/03 03:04:59;;;;;;;2.72;2.03;;;1.70;63.90;;;;;;5008914;28;20058;-57
2022/04/03 03:07:36;;;;;;;4.00;1.70;;;1.70;64.00;;;;;;5008925;28;20473;-57
2022/04/03 03:10:02;;;;;;;3.03;1.60;;;1.70;64.10;;;;;;5007590;28;20033;-57
2022/04/03 03:12:29;;;;;;;4.90;1.50;;;1.70;64.20;;;;;;5009012;28;20350;-58
2022/04/03 03:14:56;;;;;;;3.22;1.83;;;1.70;64.40;;;;;;5009002;28;20038;-57
2022/04/03 03:17:22;;;;;;;2.95;1.92;;;1.70;64.30;;;;;;5009039;28;20091;-58
2022/04/03 03:19:48;;;;;;;3.35;1.45;;;1.80;64.70;;;;;;5011722;28;20022;-58
2022/04/03 03:22:13;;;;;;;2.00;1.50;;;1.80;64.60;;;;;;5018337;28;20034;-57
2022/04/03 03:24:39;;;;;;;5.47;1.80;;;1.80;64.70;;;;;;5008738;28;20041;-58
2022/04/03 03:27:05;;;;;;;3.92;1.95;;;1.70;64.80;;;;;;5040625;28;20405;-55
2022/04/03 03:29:31;;;;;;;2.75;1.75;;;1.80;64.90;;;;;;5007602;28;20041;-63
2022/04/03 03:31:57;;;;;;;4.80;2.15;;;1.80;65.00;;;;;;5008006;28;20137;-63
2022/04/03 03:34:22;;;;;;;3.22;1.70;;;1.80;65.00;;;;;;5008523;28;20416;-63
2022/04/03 03:36:48;;;;;;;4.25;1.83;;;1.80;65.10;;;;;;5009245;28;20110;-63
2022/04/03 03:39:14;;;;;;;3.53;2.00;;;1.80;65.10;;;;;;5008688;28;20504;-63
2022/04/03 03:41:40;;;;;;;3.63;1.95;;;1.80;65.30;;;;;;5009014;28;20038;-63
2022/04/03 03:44:12;;;;;;;3.10;1.80;;;1.80;65.40;;;;;;5005817;28;20030;-63
2022/04/03 03:46:41;;;;;;;3.95;1.88;;;1.80;65.40;;;;;;5008159;28;20034;-63
2022/04/03 03:49:08;;;;;;;3.50;2.15;;;1.70;65.50;;;;;;5008089;28;20084;-63
2022/04/03 03:51:35;;;;;;;4.05;2.20;;;1.80;65.80;;;;;;5006563;28;20041;-63
2022/04/03 03:54:01;;;;;;;4.28;1.95;;;1.70;65.90;;;;;;5005410;28;20188;-63
2022/04/03 03:56:27;;;;;;;3.88;1.98;;;1.80;66.30;;;;;;5006944;28;20096;-63
2022/04/03 03:58:53;;;;;;;4.50;2.25;;;1.80;66.40;;;;;;5008543;28;20033;-63
2022/04/03 04:01:20;;;;;;;3.67;2.10;;;1.80;66.70;;;;;;5007652;28;20048;-63
2022/04/03 04:03:46;;;;;;;3.70;2.13;;;1.80;66.80;;;;;;5008211;28;20054;-63
2022/04/03 04:06:11;;;;;;;4.55;2.20;;;1.80;66.80;;;;;;5007746;28;20104;-63
2022/04/03 04:08:37;;;;;;;3.40;2.25;;;1.80;66.90;;;;;;5007888;28;20034;-63
2022/04/03 04:11:03;;;;;;;5.45;2.28;;;1.80;67.00;;;;;;5008458;28;20439;-63
2022/04/03 04:13:29;;;;;;;5.53;2.47;;;1.80;67.20;;;;;;5007660;28;20022;-63
2022/04/03 04:15:54;;;;;;;4.10;1.98;;;1.80;67.30;;;;;;5008320;28;20129;-63
2022/04/03 04:18:20;;;;;;;3.70;2.03;;;1.90;67.40;;;;;;5002383;28;20534;-62
2022/04/03 04:20:46;;;;;;;2.65;2.00;;;1.80;67.50;;;;;;5013291;28;20384;-62
2022/04/03 04:23:12;;;;;;;4.10;2.00;;;1.90;67.70;;;;;;5010315;28;20160;-56
2022/04/03 04:25:37;;;;;;;4.28;2.15;;;1.80;67.60;;;;;;5018057;28;20034;-56
2022/04/03 04:28:03;;;;;;;4.03;2.63;;;1.80;67.60;;;;;;5007410;28;20076;-55
2022/04/03 04:30:29;;;;;;;3.92;2.10;;;1.80;67.50;;;;;;5007258;28;20093;-57
2022/04/03 04:32:55;;;;;;;3.55;2.08;;;1.80;67.50;;;;;;5007839;28;20404;-56
2022/04/03 04:35:20;;;;;;;2.63;1.90;;;1.80;67.40;;;;;;5012347;28;20546;-56
2022/04/03 04:37:46;;;;;;;4.22;2.35;;;1.80;67.50;;;;;;5006137;28;20037;-56
2022/04/03 04:40:13;;;;;;;3.10;2.00;;;1.80;67.50;;;;;;5020043;28;20056;-56
2022/04/03 04:42:39;;;;;;;5.93;2.33;;;1.80;67.60;;;;;;5015613;28;20033;-57
2022/04/03 04:45:07;;;;;;;4.55;2.47;;;1.80;67.70;;;;;;5010297;28;20030;-56
2022/04/03 04:47:38;;;;;;;3.72;2.10;;;1.90;68.60;;;;;;5011079;28;20029;-56
2022/04/03 04:50:09;;;;;;;3.42;2.13;;;1.90;68.10;;;;;;5009587;28;20038;-57
2022/04/03 04:52:38;;;;;;;2.53;1.63;;;1.90;68.10;;;;;;5016003;28;20527;-57
2022/04/03 04:55:06;;;;;;;5.75;2.03;;;1.90;68.40;;;;;;5016275;28;20033;-56
2022/04/03 04:57:35;;;;;;;4.32;2.33;;;1.90;68.50;;;;;;5010850;28;20030;-57
2022/04/03 05:00:05;;;;;;;3.50;2.20;;;1.90;68.40;;;;;;5010588;28;20026;-56
2022/04/03 05:02:30;;;;;;;5.57;2.08;;;1.90;68.50;;;;;;5013122;28;20053;-58
2022/04/03 05:04:56;;;;;;;3.33;2.00;;;1.90;68.40;;;;;;5020335;28;20033;-57
2022/04/03 05:07:22;;;;;;;6.60;2.22;;;1.90;68.40;;;;;;5009498;28;20156;-57
2022/04/03 05:09:49;;;;;;;3.83;2.17;;;1.90;68.30;;;;;;5020151;28;20120;-55
2022/04/03 05:12:15;;;;;;;4.82;2.35;;;1.90;68.30;;;;;;5022966;28;20045;-58
2022/04/03 05:14:42;;;;;;;3.75;2.22;;;2.00;68.20;;;;;;5021311;28;20496;-56
2022/04/03 05:17:08;;;;;;;3.25;2.13;;;2.00;68.20;;;;;;5010456;28;20030;-57
2022/04/03 05:19:35;;;;;;;3.60;2.30;;;2.00;68.10;;;;;;5014856;28;20393;-56
2022/04/03 05:22:01;;;;;;;2.72;1.85;;;2.10;68.10;;;;;;5010356;28;20037;-58
2022/04/03 05:24:26;;;;;;;5.28;2.55;;;2.10;68.20;;;;;;5007190;28;20052;-57
2022/04/03 05:26:52;;;;;;;4.45;2.55;;;2.10;68.10;;;;;;5018998;28;20113;-57
2022/04/03 05:29:18;;;;;;;3.40;2.42;;;2.20;68.10;;;;;;5027460;28;20095;-56
2022/04/03 05:31:44;;;;;;;4.80;2.42;;;2.10;68.10;;;;;;5013928;28;20384;-58
2022/04/03 05:34:10;;;;;;;4.25;2.40;;;2.20;68.10;;;;;;5014995;28;20284;-57
2022/04/03 05:36:36;;;;;;;4.18;2.60;;;2.20;68.00;;;;;;5010537;28;20029;-55
2022/04/03 05:39:04;;;;;;;6.63;2.60;;;2.20;68.10;;;;;;5014125;28;20096;-58
2022/04/03 05:41:30;;;;;;;4.60;2.33;;;2.30;68.20;;;;;;5029285;28;20029;-55
2022/04/03 05:43:56;;;;;;;4.95;2.40;;;2.30;68.20;;;;;;4990919;28;20033;-57
2022/04/03 05:46:23;;;;;;;3.20;2.10;;;2.30;68.20;;;;;;5008625;28;20026;-58
2022/04/03 05:48:49;;;;;;;3.08;2.22;;;2.30;68.50;;;;;;5011309;28;20029;-58
2022/04/03 05:51:14;;;;;;;3.33;2.33;;;2.40;68.70;;;;;;5023890;28;20029;-56
2022/04/03 05:53:41;;;;;;;3.85;2.30;;;2.40;68.60;;;;;;5022568;28;20031;-58
2022/04/03 05:56:07;;;;;;;4.15;2.17;;;2.40;68.40;;;;;;5008386;28;20068;-59
2022/04/03 05:58:33;;;;;;;4.15;2.38;;;2.40;68.60;;;;;;5010973;28;20053;-56
2022/04/03 06:00:59;;;;;;;4.25;2.10;;;2.40;68.70;;;;;;5009354;28;20040;-63
2022/04/03 06:03:25;;;;;;;6.32;2.20;;;2.50;68.80;;;;;;5009285;28;20053;-63
2022/04/03 06:05:51;;;;;;;3.97;2.47;;;2.50;68.80;;;;;;5009498;28;20434;-63
2022/04/03 06:08:17;;;;;;;5.00;2.05;;;2.50;68.80;;;;;;5016720;28;20591;-59
2022/04/03 06:10:43;;;;;;;4.28;2.20;;;2.50;68.80;;;;;;5008699;28;20500;-59
2022/04/03 06:13:13;;;;;;;3.63;2.00;;;2.60;69.00;;;;;;5001660;28;20476;-59
2022/04/03 06:15:40;;;;;;;3.75;1.95;;;2.60;69.20;;;;;;5005103;28;20030;-58
2022/04/03 06:18:14;;;;;;;3.70;2.40;;;2.60;69.20;;;;;;5008126;28;20117;-57
2022/04/03 06:20:40;;;;;;;4.60;2.13;;;2.60;69.20;;;;;;5007400;28;20061;-58
2022/04/03 06:23:20;;;;;;;3.90;2.15;;;2.60;69.30;;;;;;5007640;28;20030;-58
2022/04/03 06:25:48;;;;;;;5.47;2.30;;;2.70;69.50;;;;;;5016241;28;20046;-63
2022/04/03 06:28:14;;;;;;;3.35;2.08;;;2.70;69.40;;;;;;5005513;28;20026;-62
2022/04/03 06:30:40;;;;;;;5.03;2.20;;;2.70;69.50;;;;;;5007273;28;20046;-63
2022/04/03 06:33:06;;;;;;;3.92;2.35;;;2.70;69.70;;;;;;5008467;28;20470;-63
2022/04/03 06:35:32;;;;;;;4.40;2.17;;;2.80;69.90;;;;;;5007838;28;20030;-62
2022/04/03 06:37:58;;;;;;;2.60;1.85;;;2.80;69.90;;;;;;5012632;28;20104;-62
2022/04/03 06:40:24;;;;;;;5.15;2.20;;;2.80;70.00;;;;;;5010253;28;20125;-62
2022/04/03 06:42:51;;;;;;;3.15;2.10;;;2.90;70.10;;;;;;5009141;28;20029;-57
2022/04/03 06:45:17;;;;;;;4.75;2.08;;;2.90;70.10;;;;;;5007683;28;20084;-57
2022/04/03 06:47:43;;;;;;;4.35;1.90;;;3.00;70.10;;;;;;5009681;28;20022;-56
2022/04/03 06:50:09;;;;;;;3.75;2.25;;;3.00;70.20;;;;;;5009486;28;20437;-56
2022/04/03 06:52:36;;;;;;;3.58;1.92;;;3.00;70.30;;;;;;5005880;28;20108;-59
2022/04/03 06:55:05;;;;;;;4.32;1.90;;;3.10;70.40;;;;;;5013932;28;20033;-59
2022/04/03 06:57:31;;;;;;;5.40;2.10;;;3.10;70.30;;;;;;5002992;28;20045;-58
2022/04/03 06:59:57;;;;;;;6.50;2.05;;;3.20;70.30;;;;;;5005598;28;20025;-58
2022/04/03 07:02:23;;;;;;;4.25;2.20;;;3.20;70.20;;;;;;5001048;28;20132;-58
2022/04/03 07:04:48;;;;;;;3.33;2.17;;;3.30;70.20;;;;;;5006553;28;20054;-59
2022/04/03 07:07:22;;;;;;;4.18;1.83;;;3.30;70.00;;;;;;5010974;28;20561;-58
2022/04/03 07:09:47;;;;;;;3.97;1.55;;;3.40;69.90;;;;;;5005699;28;20473;-58
2022/04/03 07:12:14;;;;;;;2.80;1.70;;;3.50;69.70;;;;;;5009707;28;20075;-58
2022/04/03 07:14:40;;;;;;;4.88;1.50;;;3.50;69.50;;;;;;5010642;28;20065;-58
2022/04/03 07:17:05;;;;;;;3.95;1.70;;;3.60;69.30;;;;;;5012537;28;20058;-58
2022/04/03 07:19:31;;;;;;;2.92;1.48;;;3.60;69.30;;;;;;5038966;28;20030;-58
2022/04/03 07:21:57;;;;;;;3.10;1.70;;;3.70;69.20;;;;;;5008735;28;20038;-58
2022/04/03 07:24:24;;;;;;;3.47;1.52;;;3.80;69.20;;;;;;5007552;28;20053;-58
2022/04/03 07:26:49;;;;;;;3.05;1.63;;;3.90;69.20;;;;;;5008614;28;20088;-59
2022/04/03 07:29:15;;;;;;;2.38;1.58;;;4.00;69.00;;;;;;5008650;28;20076;-58
2022/04/03 07:31:41;;;;;;;2.78;1.50;;;4.00;69.10;;;;;;5005014;28;20403;-59
2022/04/03 07:34:07;;;;;;;3.42;1.85;;;4.10;69.00;;;;;;5002267;28;20410;-58
2022/04/03 07:36:32;;;;;;;3.80;1.63;;;4.10;68.90;;;;;;5037657;28;20079;-59
2022/04/03 07:38:58;;;;;;;4.90;2.33;;;4.20;68.80;;;;;;5007755;28;20156;-59
2022/04/03 07:41:24;;;;;;;2.03;1.45;;;4.20;68.80;;;;;;5008605;28;20045;-58
2022/04/03 07:43:50;;;;;;;3.72;1.55;;;4.20;68.70;;;;;;5007512;28;20030;-59
2022/04/03 07:46:18;;;;;;;2.95;1.50;;;4.30;68.70;;;;;;5008874;28;20033;-58
2022/04/03 07:48:45;;;;;;;3.13;1.75;;;4.40;68.80;;;;;;5008681;28;20424;-58
2022/04/03 07:51:12;;;;;;;2.25;1.40;;;4.40;68.70;;;;;;5008319;28;20370;-58
2022/04/03 07:53:38;;;;;;;2.28;1.40;;;4.50;68.60;;;;;;5003287;28;20599;-58
2022/04/03 07:56:05;;;;;;;2.88;1.45;;;4.60;68.60;;;;;;5009727;28;20022;-62
2022/04/03 07:58:32;;;;;;;3.53;1.73;;;4.60;68.40;;;;;;5008777;28;20079;-63
2022/04/03 08:00:58;;;;;;;2.65;1.52;;;4.70;68.30;;;;;;5014691;28;20038;-63
2022/04/03 08:03:25;;;;;;;1.92;0.98;;;4.80;68.20;;;;;;5009074;28;20519;-63
2022/04/03 08:05:51;;;;;;;3.65;1.25;;;4.90;67.90;;;;;;5004771;28;20030;-62
2022/04/03 08:08:17;;;;;;;3.05;1.40;;;4.90;67.70;;;;;;5005325;28;20523;-62
2022/04/03 08:10:42;;;;;;;2.80;1.40;;;5.00;67.30;;;;;;4997856;28;20034;-62
2022/04/03 08:13:08;;;;;;;2.03;1.35;;;5.10;67.10;;;;;;5003992;28;20118;-62
2022/04/03 08:15:34;;;;;;;3.05;1.73;;;5.10;66.90;;;;;;4997056;28;20030;-62
2022/04/03 08:17:59;;;;;;;2.65;1.30;;;5.20;66.40;;;;;;5002147;28;20501;-58
2022/04/03 08:20:25;;;;;;;2.75;1.42;;;5.20;66.10;;;;;;5005675;28;20775;-58
2022/04/03 08:22:51;;;;;;;2.20;1.45;;;5.30;66.10;;;;;;5004847;28;20060;-58
2022/04/03 08:25:17;;;;;;;3.45;2.55;;;5.40;66.20;;;;;;5001172;28;20034;-58
2022/04/03 08:27:48;;;;;;;3.42;1.38;;;5.50;66.10;;;;;;5004132;28;20030;-61
2022/04/03 08:30:24;;;;;;;4.25;1.95;;;5.60;65.80;;;;;;5006805;28;20168;-62
2022/04/03 08:32:50;;;;;;;2.75;1.80;;;5.70;65.30;;;;;;5009489;28;20022;-62
2022/04/03 08:35:17;;;;;;;3.22;1.40;;;5.90;64.90;;;;;;5010030;28;20029;-62
2022/04/03 08:37:44;;;;;;;3.50;1.77;;;6.00;64.10;;;;;;5011430;28;20026;-63
2022/04/03 08:40:11;;;;;;;2.50;1.38;;;6.00;64.20;;;;;;5010068;28;20485;-61
2022/04/03 08:42:38;;;;;;;2.85;1.20;;;6.20;64.20;;;;;;5012142;28;20098;-61
2022/04/03 08:45:07;;;;;;;3.95;1.45;;;6.30;63.40;;;;;;5008076;28;20030;-61
2022/04/03 08:47:42;;;;;;;3.42;1.15;;;6.30;62.90;;;;;;5001329;28;20038;-61
2022/04/03 08:50:08;;;;;;;2.17;1.15;;;6.30;62.60;;;;;;5006671;28;20034;-62
2022/04/03 08:52:36;;;;;;;3.88;2.00;;;6.30;62.20;;;;;;5008943;28;20056;-61
2022/04/03 08:55:04;;;;;;;3.45;1.80;;;6.40;61.40;;;;;;5004762;28;20560;-62
2022/04/03 08:57:30;;;;;;;6.45;3.25;;;6.30;61.20;;;;;;5007375;28;20358;-62
2022/04/03 08:59:56;;;;;;;2.95;1.70;;;6.40;61.30;;;;;;5007760;28;20030;-62
2022/04/03 09:02:22;;;;;;;3.10;1.60;;;6.40;61.10;;;;;;5024649;28;20046;-61
2022/04/03 09:04:48;;;;;;;6.93;3.90;;;6.40;61.10;;;;;;5010348;28;20107;-62
2022/04/03 09:07:18;;;;;;;3.13;1.77;;;6.50;61.20;;;;;;5008264;28;20571;-62
2022/04/03 09:09:44;;;;;;;2.13;1.70;;;6.60;61.30;;;;;;5007807;28;20084;-61
2022/04/03 09:12:16;;;;;;;11.77;6.82;;;6.70;61.00;;;;;;5009938;28;20481;-58
2022/04/03 09:14:47;;;;;;;2.43;1.77;;;6.80;60.20;;;;;;5012134;28;20030;-58
2022/04/03 09:17:44;;;;;;;4.80;2.55;;;6.90;60.00;;;;;;5008414;28;20022;-58
2022/04/03 09:20:13;;;;;;;1.50;1.40;;;7.00;59.90;;;;;;5004090;28;20029;-58
2022/04/03 09:22:41;;;;;;;2.75;1.73;;;7.10;59.50;;;;;;5032350;28;20041;-58
2022/04/03 09:25:09;;;;;;;3.58;1.40;;;7.10;59.10;;;;;;5005394;28;20174;-58
2022/04/03 09:27:45;;;;;;;3.70;1.30;;;7.20;58.80;;;;;;5004148;28;20172;-58
2022/04/03 09:30:11;;;;;;;1.30;0.88;;;7.30;58.60;;;;;;5036196;28;20401;-58
2022/04/03 09:32:50;;;;;;;2.65;1.42;;;7.40;58.70;;;;;;5009206;28;20044;-61
2022/04/03 09:35:18;;;;;;;2.67;0.80;;;7.60;58.20;;;;;;5007740;28;20056;-61
2022/04/03 09:38:05;;;;;;;2.22;1.05;;;7.80;56.80;;;;;;5007521;28;20034;-60
2022/04/03 09:40:33;;;;;;;2.90;0.93;;;7.80;55.20;;;;;;5004506;28;20029;-62
2022/04/03 09:43:18;;;;;;;1.02;0.85;;;7.70;54.80;;;;;;5005919;28;21152;-62
2022/04/03 09:46:05;;;;;;;2.65;0.73;;;7.50;54.90;;;;;;5006952;28;20143;-62
2022/04/03 09:48:33;;;;;;;1.00;0.80;;;7.40;55.10;;;;;;5041302;28;20018;-58
2022/04/03 09:51:11;;;;;;;1.73;0.75;;;7.40;55.40;;;;;;5004763;28;20038;-56
2022/04/03 09:53:45;;;;;;;1.45;0.70;;;7.30;55.10;;;;;;5001034;28;21210;-59
2022/04/03 09:56:26;;;;;;;1.30;0.63;;;7.30;55.70;;;;;;5007601;28;20030;-58
2022/04/03 09:58:53;;;;;;;1.20;0.80;;;7.30;55.70;;;;;;5004729;28;20036;-58
2022/04/03 10:01:30;;;;;;;3.35;0.90;;;7.40;56.10;;;;;;5007714;28;20284;-58
2022/04/03 10:04:00;;;;;;;2.55;0.80;;;7.60;56.10;;;;;;5005304;28;20241;-58
2022/04/03 10:06:27;;;;;;;1.48;0.70;;;7.80;55.80;;;;;;5008080;28;20295;-57
2022/04/03 10:08:53;;;;;;;2.13;0.73;;;8.10;55.30;;;;;;5016236;28;20079;-58
2022/04/03 10:11:20;;;;;;;2.88;0.80;;;8.20;53.30;;;;;;5007723;28;20029;-62
2022/04/03 10:13:47;;;;;;;1.92;0.80;;;8.20;53.00;;;;;;5007048;28;20025;-62
2022/04/03 10:16:14;;;;;;;2.75;1.25;;;8.10;53.20;;;;;;5012721;28;20302;-62
2022/04/03 10:18:41;;;;;;;3.40;1.00;;;8.10;53.80;;;;;;5008728;28;20026;-61
2022/04/03 10:21:21;;;;;;;2.33;0.70;;;8.00;54.00;;;;;;5007644;28;20166;-58
2022/04/03 10:23:48;;;;;;;2.80;1.35;;;8.00;54.40;;;;;;5007570;28;20100;-58
2022/04/03 10:26:18;;;;;;;0.90;0.90;;;7.90;54.60;;;;;;5007666;28;20420;-58
2022/04/03 10:28:54;;;;;;;1.77;1.27;;;7.80;55.10;;;;;;5005666;28;20038;-61
2022/04/03 10:31:20;;;;;;;6.22;1.30;;;7.70;55.70;;;;;;5004570;28;20030;-62
2022/04/03 10:33:49;;;;;;;1.63;1.20;;;7.60;56.20;;;;;;5005157;28;20487;-62
2022/04/03 10:36:22;;;;;;;2.00;1.30;;;7.50;56.60;;;;;;5034463;28;20049;-62
2022/04/03 10:38:57;;;;;;;5.88;1.50;;;7.40;56.80;;;;;;5006346;28;20469;-58
2022/04/03 10:41:32;;;;;;;2.78;1.40;;;7.30;57.10;;;;;;5007260;28;20417;-58
2022/04/03 10:44:22;;;;;;;2.58;1.05;;;7.30;57.30;;;;;;5010381;28;20061;-62
2022/04/03 10:47:03;;;;;;;1.77;1.30;;;7.20;57.60;;;;;;5005481;28;20214;-61
2022/04/03 10:49:57;;;;;;;3.65;1.60;;;7.20;57.90;;;;;;5006621;28;20040;-62
2022/04/03 10:52:24;;;;;;;3.33;1.40;;;7.30;58.20;;;;;;5006097;28;20454;-61
2022/04/03 10:54:51;;;;;;;2.40;1.27;;;7.30;58.20;;;;;;5008017;28;20022;-58
2022/04/03 10:57:47;;;;;;;1.67;1.30;;;7.40;57.90;;;;;;5040065;28;20044;-62
2022/04/03 11:00:12;;;;;;;2.15;1.17;;;7.50;57.60;;;;;;5005673;28;20026;-58
2022/04/03 11:02:57;;;;;;;1.80;1.10;;;7.70;57.70;;;;;;5036521;28;20080;-57
2022/04/03 11:05:29;;;;;;;5.22;1.40;;;7.90;57.60;;;;;;5003140;28;20026;-58
2022/04/03 11:07:54;;;;;;;2.80;1.57;;;8.00;57.00;;;;;;5004190;28;20030;-57
2022/04/03 11:10:54;;;;;;;2.05;1.58;;;8.20;56.80;;;;;;5007966;28;20056;-58
2022/04/03 11:13:39;;;;;;;1.75;1.30;;;8.30;56.10;;;;;;5039454;28;20051;-62
2022/04/03 11:16:10;;;;;;;2.78;2.40;;;8.20;55.90;;;;;;4994759;28;20109;-55
2022/04/03 11:18:43;;;;;;;4.18;2.17;;;8.20;56.20;;;;;;5000724;28;20033;-58
2022/04/03 11:21:27;;;;;;;2.38;1.60;;;8.10;56.40;;;;;;5007714;28;20118;-56
2022/04/03 11:24:01;;;;;;;1.98;1.40;;;7.90;56.80;;;;;;5003828;28;20017;-58
2022/04/03 11:26:28;;;;;;;1.63;1.35;;;7.90;57.10;;;;;;5007988;28;20026;-61
2022/04/03 11:28:54;;;;;;;2.67;1.38;;;7.80;56.70;;;;;;5007707;28;20022;-61
2022/04/03 11:31:20;;;;;;;3.15;1.50;;;7.70;56.80;;;;;;5000744;28;20053;-62
2022/04/03 11:33:46;;;;;;;2.85;1.42;;;7.70;56.90;;;;;;5010714;28;20485;-62
2022/04/03 11:36:15;;;;;;;2.50;1.27;;;7.70;57.10;;;;;;5008677;28;20099;-62
2022/04/03 11:38:43;;;;;;;3.83;1.20;;;7.70;57.10;;;;;;5007417;28;20030;-62
2022/04/03 11:41:18;;;;;;;3.35;1.33;;;7.80;57.10;;;;;;5006944;28;20116;-62
2022/04/03 11:44:03;;;;;;;1.70;1.10;;;7.70;56.80;;;;;;5007514;28;20037;-56
2022/04/03 11:46:31;;;;;;;1.58;0.90;;;7.80;57.00;;;;;;5025489;28;20088;-57
2022/04/03 11:48:57;;;;;;;2.60;1.00;;;7.90;56.90;;;;;;4993719;28;20383;-62
2022/04/03 11:51:23;;;;;;;1.75;0.95;;;8.00;56.30;;;;;;4996796;28;20576;-62
2022/04/03 11:54:00;;;;;;;2.97;1.40;;;8.00;55.70;;;;;;5020776;28;20030;-62
2022/04/03 11:56:31;;;;;;;1.98;0.90;;;8.10;56.30;;;;;;5012651;28;20034;-58
2022/04/03 11:58:58;;;;;;;3.13;0.90;;;8.20;54.70;;;;;;5010058;28;20117;-58
2022/04/03 12:01:40;;;;;;;1.73;1.08;;;8.30;54.70;;;;;;5005579;28;20038;-56
2022/04/03 12:04:08;;;;;;;1.85;1.00;;;8.30;54.30;;;;;;5006457;28;20038;-58
2022/04/03 12:06:39;;;;;;;1.98;0.93;;;8.30;54.50;;;;;;5010391;28;20041;-58
2022/04/03 12:09:09;;;;;;;1.40;1.10;;;8.30;54.70;;;;;;5016361;28;20056;-59
2022/04/03 12:11:36;;;;;;;2.05;0.98;;;8.30;54.80;;;;;;5012334;28;20512;-59
2022/04/03 12:14:04;;;;;;;3.33;0.90;;;8.20;55.00;;;;;;5013595;28;20048;-58
2022/04/03 12:16:33;;;;;;;1.92;1.00;;;8.10;55.70;;;;;;5041624;28;20025;-59
2022/04/03 12:19:09;;;;;;;4.93;1.30;;;8.10;56.50;;;;;;5009642;28;20030;-58
2022/04/03 12:21:54;;;;;;;2.03;1.00;;;8.00;57.40;;;;;;4997384;28;20022;-58
2022/04/03 12:24:24;;;;;;;3.17;1.20;;;8.00;58.50;;;;;;5010154;28;20121;-62
2022/04/03 12:27:00;;;;;;;1.30;1.00;;;7.90;59.40;;;;;;5002388;28;20026;-62
2022/04/03 12:29:31;;;;;;;2.78;1.42;;;7.80;59.50;;;;;;5003034;28;20482;-61
2022/04/03 12:32:15;;;;;;;2.40;1.13;;;7.80;59.80;;;;;;5002761;28;20505;-62
2022/04/03 12:34:47;;;;;;;1.10;0.65;;;7.90;59.60;;;;;;4997338;28;20444;-62
2022/04/03 12:37:14;;;;;;;3.58;0.60;;;7.90;59.30;;;;;;4996593;28;20084;-58
2022/04/03 12:39:44;;;;;;;1.42;0.60;;;7.90;59.00;;;;;;4997467;28;20022;-58
2022/04/03 12:42:10;;;;;;;0.80;0.60;;;8.00;58.90;;;;;;4999515;28;20076;-59
2022/04/03 12:44:43;;;;;;;1.20;0.80;;;8.00;58.70;;;;;;5002051;28;20023;-58
2022/04/03 12:47:16;;;;;;;0.60;0.60;;;8.10;59.00;;;;;;5010560;28;20586;-62
2022/04/03 12:49:47;;;;;;;3.08;1.10;;;8.20;59.20;;;;;;4994136;28;20038;-62
2022/04/03 12:52:39;;;;;;;2.55;0.77;;;8.30;58.80;;;;;;5005166;28;20026;-62
2022/04/03 12:55:07;;;;;;;1.75;1.05;;;8.30;58.80;;;;;;5007012;28;20056;-62
2022/04/03 13:00:18;;;;;;;3.22;0.95;;;8.40;59.10;;;;;;5008916;28;20147;-62
2022/04/03 13:02:45;;;;;;;1.13;0.70;;;8.40;58.20;;;;;;5004664;28;20533;-62
2022/04/03 13:05:15;;;;;;;2.45;0.93;;;8.40;58.10;;;;;;5003205;28;20117;-62
2022/04/03 13:07:41;;;;;;;3.22;1.00;;;8.40;58.10;;;;;;5002206;28;20049;-62